Time;durP1;ratioP1;P1;durP2;ratioP2;P2;SDS_P1;SDS_P2;PMS_P1;PMS_P2;Temp;Humidity;BMP_temperature;BMP_pressure;BME280_temperature;BME280_humidity;BME280_pressure;Samples;Min_cycle;Max_cycle;Signal;HPM_P1;HPM_P2
2021/10/23 00:01:05;;;;;;;3.10;1.80;;;;;;;7.03;64.94;99762.51;138939;1193;109318;-80
2021/10/23 00:04:10;;;;;;;2.90;1.80;;;;;;;6.99;64.93;99775.08;138890;1192;108451;-80
2021/10/23 00:07:15;;;;;;;4.20;1.70;;;;;;;6.95;65.01;99784.66;138797;1192;108635;-80
2021/10/23 00:10:21;;;;;;;3.90;2.00;;;;;;;6.97;65.23;99788.52;138824;1192;108509;-79
2021/10/23 00:13:26;;;;;;;2.90;2.00;;;;;;;7.00;65.30;99792.02;138800;1192;108505;-78
2021/10/23 00:16:32;;;;;;;3.60;1.90;;;;;;;7.03;65.52;99807.13;138820;1192;108417;-77
2021/10/23 00:19:37;;;;;;;2.80;1.70;;;;;;;7.01;65.24;99810.61;138881;1192;106803;-81
2021/10/23 00:22:43;;;;;;;5.30;2.00;;;;;;;7.01;65.64;99808.39;138972;1192;108588;-83
2021/10/23 00:25:48;;;;;;;2.80;1.90;;;;;;;7.00;65.57;99810.34;138948;1192;108456;-82
2021/10/23 00:28:53;;;;;;;4.00;2.20;;;;;;;7.04;65.34;99821.63;138874;1196;108282;-83
2021/10/23 00:31:59;;;;;;;3.30;2.00;;;;;;;7.03;66.08;99821.98;138917;1192;107505;-82
2021/10/23 00:35:05;;;;;;;3.10;1.80;;;;;;;7.05;66.00;99831.70;138974;1192;107026;-83
2021/10/23 00:38:10;;;;;;;4.20;2.30;;;;;;;7.14;66.00;99834.05;138994;1192;108579;-84
2021/10/23 00:41:15;;;;;;;2.50;1.80;;;;;;;7.22;66.05;99836.27;138813;1192;108455;-81
2021/10/23 00:44:33;;;;;;;3.30;1.90;;;;;;;7.26;65.64;99836.11;138992;1191;107996;-80
2021/10/23 00:47:38;;;;;;;3.50;1.90;;;;;;;7.31;65.27;99843.46;138727;1192;108443;-81
2021/10/23 00:50:47;;;;;;;2.20;1.60;;;;;;;7.35;65.49;99849.97;138756;1192;107474;-80
2021/10/23 00:53:52;;;;;;;3.40;1.80;;;;;;;7.37;65.25;99845.16;138792;1192;108438;-81
2021/10/23 00:57:00;;;;;;;2.90;1.50;;;;;;;7.34;65.67;99841.91;138755;1192;108487;-79
2021/10/23 01:00:07;;;;;;;3.00;1.60;;;;;;;7.31;65.46;99849.26;138701;1192;107344;-80
2021/10/23 01:03:13;;;;;;;5.00;1.80;;;;;;;7.33;65.45;99849.64;138725;1192;108625;-81
2021/10/23 01:06:42;;;;;;;3.30;1.60;;;;;;;7.36;65.26;99841.59;138744;1178;107505;-81
2021/10/23 01:09:52;;;;;;;2.70;1.70;;;;;;;7.43;65.17;99832.59;138583;1188;109620;-84
2021/10/23 01:13:01;;;;;;;3.00;1.90;;;;;;;7.46;65.00;99832.64;138734;1192;108464;-84
2021/10/23 01:16:07;;;;;;;4.30;1.80;;;;;;;7.42;65.24;99830.95;138795;1192;108506;-80
2021/10/23 01:19:14;;;;;;;5.60;2.30;;;;;;;7.33;65.07;99836.75;139036;1192;108594;-80
2021/10/23 01:22:27;;;;;;;4.40;1.90;;;;;;;7.32;65.60;99839.83;138859;1192;108146;-79
2021/10/23 01:25:34;;;;;;;3.60;2.00;;;;;;;7.34;65.41;99842.28;138739;1199;108389;-80
2021/10/23 01:28:39;;;;;;;6.00;2.70;;;;;;;7.36;65.36;99848.80;138991;1192;108555;-81
2021/10/23 01:31:46;;;;;;;2.80;1.70;;;;;;;7.33;65.70;99858.25;138797;1192;109458;-80
2021/10/23 01:34:52;;;;;;;3.90;1.90;;;;;;;7.37;65.40;99857.19;138770;1192;107923;-83
2021/10/23 01:37:58;;;;;;;2.80;1.80;;;;;;;7.43;65.27;99848.91;138947;1193;108568;-78
2021/10/23 01:41:05;;;;;;;2.60;1.80;;;;;;;7.46;65.75;99860.39;138765;1192;108129;-79
2021/10/23 01:44:13;;;;;;;3.30;1.90;;;;;;;7.39;65.66;99869.78;138735;1192;108403;-78
2021/10/23 01:47:21;;;;;;;3.20;1.80;;;;;;;7.38;65.59;99866.14;138782;1192;108585;-82
2021/10/23 01:50:29;;;;;;;4.30;2.00;;;;;;;7.37;65.42;99871.75;138853;1192;108377;-81
2021/10/23 01:53:35;;;;;;;3.50;1.90;;;;;;;7.26;65.50;99879.77;138917;1192;108488;-81
2021/10/23 01:56:42;;;;;;;4.70;1.80;;;;;;;7.14;65.56;99881.64;138909;1192;108542;-81
2021/10/23 01:59:47;;;;;;;4.70;2.60;;;;;;;7.01;65.43;99882.80;138816;1192;108571;-80
2021/10/23 02:02:53;;;;;;;4.00;1.60;;;;;;;6.92;65.52;99890.36;138909;1192;108592;-81
2021/10/23 02:05:58;;;;;;;2.80;1.70;;;;;;;6.86;65.35;99892.79;138913;1192;108472;-82
2021/10/23 02:09:05;;;;;;;3.90;1.60;;;;;;;6.89;65.14;99905.83;138886;1192;108594;-82
2021/10/23 02:12:10;;;;;;;3.60;1.50;;;;;;;6.86;65.15;99903.42;138908;1193;109337;-82
2021/10/23 02:15:16;;;;;;;4.60;1.60;;;;;;;6.84;65.23;99907.85;138851;1192;107388;-82
2021/10/23 02:18:22;;;;;;;3.00;1.70;;;;;;;6.78;65.43;99911.25;138845;1192;108125;-82
2021/10/23 02:21:27;;;;;;;6.00;2.70;;;;;;;6.73;65.42;99915.37;138806;1193;108497;-81
2021/10/23 02:24:32;;;;;;;4.90;1.80;;;;;;;6.67;65.41;99919.23;138830;1192;108000;-82
2021/10/23 02:27:39;;;;;;;2.40;1.50;;;;;;;6.63;65.48;99931.29;138858;1192;108338;-83
2021/10/23 02:30:45;;;;;;;3.10;1.50;;;;;;;6.63;65.71;99934.14;138904;1192;108423;-81
2021/10/23 02:33:50;;;;;;;5.10;1.60;;;;;;;6.65;65.34;99939.20;138803;1191;108404;-80
2021/10/23 02:36:57;;;;;;;4.00;1.30;;;;;;;6.73;65.62;99938.02;138713;1192;108448;-80
2021/10/23 02:40:02;;;;;;;5.10;1.40;;;;;;;6.82;65.61;99937.70;138748;1192;106998;-77
2021/10/23 02:43:08;;;;;;;5.60;1.80;;;;;;;6.94;65.44;99939.53;138676;1192;108567;-79
2021/10/23 02:46:13;;;;;;;4.20;2.50;;;;;;;7.03;65.08;99948.04;138776;1192;108555;-80
2021/10/23 02:49:18;;;;;;;3.30;1.50;;;;;;;7.10;65.32;99958.60;138873;1192;107510;-79
2021/10/23 02:52:24;;;;;;;3.20;1.50;;;;;;;7.14;65.42;99967.59;138858;1196;108473;-80
2021/10/23 02:55:30;;;;;;;5.00;1.60;;;;;;;7.19;65.23;99969.64;138779;1192;108398;-82
2021/10/23 02:58:36;;;;;;;3.80;1.60;;;;;;;7.21;65.15;99976.00;138775;1192;108473;-82
2021/10/23 03:01:41;;;;;;;4.10;2.00;;;;;;;7.19;65.30;99979.83;138808;1192;108552;-81
2021/10/23 03:04:47;;;;;;;4.40;2.00;;;;;;;7.12;65.45;99981.75;138835;1192;108488;-77
2021/10/23 03:07:52;;;;;;;3.40;1.60;;;;;;;7.09;65.34;99977.05;138719;1192;108429;-77
2021/10/23 03:10:57;;;;;;;4.10;1.50;;;;;;;7.09;65.43;99982.70;138702;1192;109088;-77
2021/10/23 03:14:03;;;;;;;4.30;1.70;;;;;;;7.15;65.55;99981.66;138692;1192;108592;-78
2021/10/23 03:17:08;;;;;;;4.30;1.70;;;;;;;7.21;65.32;99985.34;138677;1192;108456;-78
2021/10/23 03:20:15;;;;;;;3.70;1.30;;;;;;;7.27;65.35;99991.05;138701;1192;108621;-77
2021/10/23 03:23:20;;;;;;;3.10;1.40;;;;;;;7.30;64.94;99988.98;138698;1192;108860;-77
2021/10/23 03:26:26;;;;;;;4.30;1.60;;;;;;;7.29;65.27;99987.64;138781;1192;108558;-77
2021/10/23 03:29:31;;;;;;;4.40;1.60;;;;;;;7.28;65.08;99992.18;138735;1192;108633;-82
2021/10/23 03:32:37;;;;;;;3.40;1.50;;;;;;;7.25;65.26;99988.33;138786;1192;108487;-83
2021/10/23 03:35:42;;;;;;;3.00;1.60;;;;;;;7.19;65.27;99991.77;139177;1192;108341;-88
2021/10/23 03:38:47;;;;;;;3.10;1.60;;;;;;;7.10;65.37;99995.04;139076;1192;107517;-84
2021/10/23 03:41:54;;;;;;;3.80;1.50;;;;;;;7.03;65.52;100004.61;138775;1192;108443;-78
2021/10/23 03:45:00;;;;;;;5.90;1.30;;;;;;;7.01;65.42;100007.11;138639;1192;108604;-78
2021/10/23 03:48:06;;;;;;;3.10;1.50;;;;;;;7.05;65.43;100011.48;138715;1191;108583;-77
2021/10/23 03:51:11;;;;;;;3.60;1.80;;;;;;;7.13;65.22;100008.88;138691;1192;108447;-79
2021/10/23 03:54:16;;;;;;;3.60;1.40;;;;;;;7.17;65.27;100012.09;138740;1192;108452;-77
2021/10/23 03:57:22;;;;;;;3.40;1.60;;;;;;;7.15;64.96;100012.48;138654;1192;108489;-77
2021/10/23 04:00:28;;;;;;;6.20;1.90;;;;;;;7.05;65.07;100015.28;138707;1192;108705;-77
2021/10/23 04:03:34;;;;;;;4.20;1.80;;;;;;;6.95;65.11;100014.33;138682;1192;108323;-77
2021/10/23 04:06:39;;;;;;;6.40;1.90;;;;;;;6.85;65.51;100020.73;138726;1198;108412;-78
2021/10/23 04:09:44;;;;;;;4.20;1.60;;;;;;;6.74;65.39;100022.59;138700;1183;108457;-78
2021/10/23 04:12:50;;;;;;;3.30;1.50;;;;;;;6.66;65.27;100028.89;138632;1191;108564;-78
2021/10/23 04:15:56;;;;;;;4.00;1.60;;;;;;;6.59;65.40;100037.35;138704;1192;108677;-78
2021/10/23 04:19:01;;;;;;;5.50;1.50;;;;;;;6.55;65.76;100041.38;138664;1192;108319;-77
2021/10/23 04:22:07;;;;;;;4.10;1.30;;;;;;;6.59;65.47;100049.15;138685;1192;108622;-80
2021/10/23 04:25:12;;;;;;;4.10;1.80;;;;;;;6.70;65.56;100058.66;138828;1192;108066;-81
2021/10/23 04:28:18;;;;;;;5.80;1.60;;;;;;;6.79;65.55;100057.65;138822;1192;108526;-80
2021/10/23 04:31:23;;;;;;;14.70;8.90;;;;;;;6.86;65.94;100051.23;138795;1192;108382;-79
2021/10/23 04:34:29;;;;;;;16.80;9.20;;;;;;;6.85;65.43;100057.71;138784;1193;108296;-81
2021/10/23 04:37:35;;;;;;;5.00;3.10;;;;;;;6.87;65.66;100059.29;138777;1193;108429;-78
2021/10/23 04:40:40;;;;;;;33.00;17.50;;;;;;;6.88;65.63;100063.79;138693;1192;108571;-79
2021/10/23 04:43:46;;;;;;;11.20;5.10;;;;;;;6.90;65.46;100060.95;138718;1196;108384;-82
2021/10/23 04:46:51;;;;;;;6.70;2.60;;;;;;;6.92;65.61;100063.80;138876;1192;108370;-83
2021/10/23 04:49:56;;;;;;;4.10;1.80;;;;;;;6.91;65.67;100070.98;138916;1192;107506;-84
2021/10/23 04:53:02;;;;;;;5.50;2.20;;;;;;;6.91;65.52;100072.75;138822;1192;108483;-83
2021/10/23 04:56:07;;;;;;;5.10;1.90;;;;;;;6.94;65.64;100069.80;138978;1192;108463;-83
2021/10/23 04:59:13;;;;;;;4.60;1.80;;;;;;;7.00;65.59;100069.66;138844;1192;108588;-84
2021/10/23 05:02:18;;;;;;;6.70;2.00;;;;;;;7.09;65.58;100068.86;138901;1192;108471;-80
2021/10/23 05:05:24;;;;;;;3.60;1.60;;;;;;;7.15;65.48;100063.26;139079;1192;108356;-79
2021/10/23 05:08:30;;;;;;;4.80;1.90;;;;;;;7.17;65.36;100067.81;138848;1192;108473;-77
2021/10/23 05:11:35;;;;;;;6.50;2.40;;;;;;;7.15;65.62;100081.58;138731;1192;108500;-77
2021/10/23 05:14:40;;;;;;;5.50;1.80;;;;;;;7.12;65.67;100092.09;138952;1192;108639;-76
2021/10/23 05:17:46;;;;;;;7.40;1.80;;;;;;;7.13;65.63;100094.36;139060;1191;108573;-82
2021/10/23 05:20:51;;;;;;;5.20;1.80;;;;;;;7.11;65.83;100101.09;139152;1192;107551;-80
2021/10/23 05:23:57;;;;;;;16.70;6.60;;;;;;;7.12;65.60;100102.45;138955;1192;108459;-78
2021/10/23 05:27:03;;;;;;;9.20;2.70;;;;;;;7.15;65.77;100110.09;138786;1192;109302;-82
2021/10/23 05:30:10;;;;;;;5.80;3.00;;;;;;;7.20;65.76;100112.08;138865;1192;108572;-83
2021/10/23 05:33:15;;;;;;;8.30;2.80;;;;;;;7.29;65.72;100103.41;138787;1192;108415;-81
2021/10/23 05:36:20;;;;;;;3.60;2.10;;;;;;;7.38;65.83;100097.40;138812;1192;108551;-83
2021/10/23 05:39:26;;;;;;;6.80;2.50;;;;;;;7.42;65.91;100097.38;139248;1192;108416;-83
2021/10/23 05:42:31;;;;;;;8.80;4.80;;;;;;;7.42;65.69;100108.23;138978;1192;108827;-78
2021/10/23 05:45:37;;;;;;;9.60;6.10;;;;;;;7.41;65.90;100117.16;138776;1192;107609;-83
2021/10/23 05:48:42;;;;;;;8.60;3.80;;;;;;;7.38;65.89;100124.13;138840;1191;108152;-82
2021/10/23 05:51:48;;;;;;;7.50;4.70;;;;;;;7.36;65.91;100127.33;139069;1192;108142;-84
2021/10/23 05:54:53;;;;;;;11.20;4.30;;;;;;;7.36;66.12;100128.60;138970;1192;108655;-87
2021/10/23 05:58:01;;;;;;;6.80;3.30;;;;;;;7.31;66.19;100136.30;138975;1191;107639;-86
2021/10/23 06:01:07;;;;;;;6.50;3.50;;;;;;;7.31;66.28;100137.66;138781;1193;108150;-77
2021/10/23 06:04:15;;;;;;;146.40;74.30;;;;;;;7.33;66.43;100145.80;138749;1192;108608;-81
2021/10/23 06:07:20;;;;;;;233.40;115.10;;;;;;;7.37;66.14;100152.88;138944;1184;108603;-83
2021/10/23 06:10:26;;;;;;;52.60;26.00;;;;;;;7.45;66.26;100159.23;138986;1192;108404;-76
2021/10/23 06:13:32;;;;;;;20.20;10.50;;;;;;;7.47;66.17;100164.62;138826;1193;108408;-81
2021/10/23 06:16:37;;;;;;;8.00;4.10;;;;;;;7.52;65.88;100169.30;138814;1193;108528;-81
2021/10/23 06:19:43;;;;;;;9.40;4.30;;;;;;;7.50;66.07;100176.40;138908;1186;108414;-78
2021/10/23 06:22:53;;;;;;;12.50;4.80;;;;;;;7.52;66.17;100174.48;138749;1192;108434;-80
2021/10/23 06:25:59;;;;;;;16.20;8.70;;;;;;;7.55;66.24;100178.09;138721;1192;108440;-79
2021/10/23 06:29:04;;;;;;;10.40;4.00;;;;;;;7.52;66.12;100176.77;138738;1192;107379;-81
2021/10/23 06:32:10;;;;;;;5.50;3.00;;;;;;;7.50;66.34;100179.73;138819;1192;108642;-81
2021/10/23 06:35:15;;;;;;;41.70;30.60;;;;;;;7.52;66.02;100184.90;138849;1193;108630;-77
2021/10/23 06:38:21;;;;;;;24.00;15.50;;;;;;;7.56;66.01;100192.35;139020;1192;108406;-80
2021/10/23 06:41:26;;;;;;;20.00;13.60;;;;;;;7.62;65.96;100191.38;138845;1192;108624;-83
2021/10/23 06:44:31;;;;;;;11.30;5.70;;;;;;;7.62;65.96;100196.70;138882;1192;108943;-81
2021/10/23 06:47:37;;;;;;;7.70;4.10;;;;;;;7.63;65.88;100202.98;138890;1192;108544;-85
2021/10/23 06:50:43;;;;;;;9.00;3.80;;;;;;;7.61;65.59;100207.79;138835;1191;108526;-82
2021/10/23 06:53:48;;;;;;;7.40;3.10;;;;;;;7.59;66.02;100211.71;138913;1192;108556;-80
2021/10/23 06:56:54;;;;;;;7.90;3.10;;;;;;;7.58;65.92;100216.23;138959;1192;108419;-82
2021/10/23 06:59:59;;;;;;;8.60;3.30;;;;;;;7.59;65.73;100221.77;138836;1192;108453;-84
2021/10/23 07:03:05;;;;;;;6.90;2.80;;;;;;;7.58;65.92;100223.79;138976;1192;108367;-82
2021/10/23 07:06:11;;;;;;;7.80;2.80;;;;;;;7.55;65.81;100235.44;139024;1193;108382;-83
2021/10/23 07:09:18;;;;;;;7.30;2.50;;;;;;;7.53;66.04;100237.92;138865;1191;108641;-83
2021/10/23 07:12:23;;;;;;;5.90;2.50;;;;;;;7.56;66.06;100240.14;138795;1192;107260;-84
2021/10/23 07:15:29;;;;;;;10.00;5.60;;;;;;;7.60;65.88;100247.88;138841;1192;108320;-82
2021/10/23 07:18:34;;;;;;;7.60;2.90;;;;;;;7.62;65.91;100254.81;138898;1192;108357;-82
2021/10/23 07:21:40;;;;;;;8.40;3.30;;;;;;;7.58;65.93;100257.98;138860;1192;107562;-76
2021/10/23 07:24:45;;;;;;;6.10;2.90;;;;;;;7.59;65.83;100262.32;138698;1192;108570;-79
2021/10/23 07:27:51;;;;;;;409.30;271.10;;;;;;;7.55;65.77;100266.05;138844;1192;108724;-81
2021/10/23 07:31:01;;;;;;;57.00;29.70;;;;;;;7.52;65.96;100268.42;138878;1192;108403;-85
2021/10/23 07:34:06;;;;;;;93.60;56.80;;;;;;;7.47;65.98;100271.10;138992;1192;109280;-78
2021/10/23 07:37:12;;;;;;;29.10;17.90;;;;;;;7.49;66.05;100276.27;138809;1192;108887;-78
2021/10/23 07:40:17;;;;;;;22.10;13.70;;;;;;;7.54;65.97;100270.38;140368;1191;108450;-78
2021/10/23 07:43:23;;;;;;;10.50;5.50;;;;;;;7.61;65.81;100268.50;138700;1192;108359;-77
2021/10/23 07:46:28;;;;;;;8.40;4.10;;;;;;;7.69;65.87;100271.53;138725;1184;108596;-76
2021/10/23 07:49:33;;;;;;;13.40;5.20;;;;;;;7.76;65.73;100276.92;138758;1191;108825;-80
2021/10/23 07:52:40;;;;;;;12.40;7.80;;;;;;;7.81;65.63;100275.12;138929;1192;108598;-77
2021/10/23 07:55:46;;;;;;;9.20;3.40;;;;;;;7.90;65.72;100280.71;138792;1192;108388;-79
2021/10/23 07:58:51;;;;;;;6.30;3.50;;;;;;;7.91;65.52;100287.71;138736;1192;108559;-77
2021/10/23 08:01:59;;;;;;;10.00;4.00;;;;;;;7.95;65.61;100297.59;138808;1192;108373;-77
2021/10/23 08:05:04;;;;;;;11.70;7.40;;;;;;;7.97;65.34;100296.70;138700;1192;108446;-78
2021/10/23 08:08:10;;;;;;;9.20;4.60;;;;;;;7.99;65.19;100300.83;138833;1192;108688;-76
2021/10/23 08:11:16;;;;;;;7.90;3.00;;;;;;;7.88;65.40;100308.86;138805;1191;108240;-82
2021/10/23 08:14:22;;;;;;;6.00;2.30;;;;;;;7.76;65.56;100311.84;138834;1194;108563;-79
2021/10/23 08:17:27;;;;;;;8.60;3.00;;;;;;;7.74;65.66;100318.94;138764;1192;108681;-81
2021/10/23 08:20:35;;;;;;;13.20;5.90;;;;;;;7.86;65.82;100312.55;138756;1194;108418;-81
2021/10/23 08:23:40;;;;;;;10.60;4.40;;;;;;;7.99;65.27;100319.80;139027;1192;107980;-81
2021/10/23 08:26:47;;;;;;;10.00;3.70;;;;;;;8.16;65.43;100321.98;139040;1191;108610;-81
2021/10/23 08:29:52;;;;;;;12.10;4.90;;;;;;;8.34;65.25;100325.70;138979;1177;108453;-79
2021/10/23 08:32:58;;;;;;;9.50;3.70;;;;;;;8.47;64.61;100327.91;138908;1192;108425;-84
2021/10/23 08:36:04;;;;;;;9.40;3.70;;;;;;;8.49;64.62;100332.89;138938;1192;108357;-82
2021/10/23 08:39:09;;;;;;;10.00;3.70;;;;;;;8.59;64.84;100342.61;138996;1192;108573;-82
2021/10/23 08:42:16;;;;;;;11.20;4.30;;;;;;;8.66;64.53;100348.59;138919;1192;108546;-76
2021/10/23 08:45:23;;;;;;;9.60;3.40;;;;;;;8.71;64.77;100350.98;138919;1192;108501;-84
2021/10/23 08:48:31;;;;;;;9.60;3.50;;;;;;;8.76;64.46;100353.14;139051;1192;107450;-80
2021/10/23 08:51:36;;;;;;;11.50;4.30;;;;;;;8.73;64.33;100359.86;138812;1192;108387;-81
2021/10/23 10:39:55;;;;;;;10.30;3.70;;;;;;;8.85;61.91;100455.20;139991;1192;108641;-81
2021/10/23 10:43:02;;;;;;;6.30;2.50;;;;;;;8.90;62.29;100449.36;137541;1203;108436;-81
2021/10/23 10:46:07;;;;;;;7.60;2.30;;;;;;;9.03;62.13;100459.02;137805;1200;108625;-82
2021/10/23 10:49:50;;;;;;;6.70;2.30;;;;;;;9.18;62.44;100466.88;137571;1203;108573;-82
2021/10/23 10:52:59;;;;;;;10.90;4.30;;;;;;;9.29;61.80;100472.67;137696;1208;108247;-81
2021/10/23 10:56:10;;;;;;;10.90;3.00;;;;;;;9.29;61.83;100474.90;137580;1203;108528;-81
2021/10/23 10:59:55;;;;;;;8.80;3.10;;;;;;;9.18;61.77;100477.67;137615;1203;107376;-81
2021/10/23 11:03:36;;;;;;;10.70;3.30;;;;;;;9.12;61.60;100485.63;137577;1203;108538;-80
2021/10/23 11:06:55;;;;;;;10.10;3.30;;;;;;;9.11;62.07;100486.69;137636;1208;108229;-82
2021/10/23 11:10:01;;;;;;;12.70;3.50;;;;;;;9.19;61.88;100492.45;137603;1202;108445;-81
2021/10/23 11:13:26;;;;;;;10.00;3.20;;;;;;;9.23;61.86;100498.86;137586;1203;108274;-81
2021/10/23 11:16:34;;;;;;;13.50;3.80;;;;;;;9.22;61.88;100501.95;137614;1203;108598;-81
2021/10/23 11:19:43;;;;;;;9.10;3.80;;;;;;;9.29;62.00;100502.21;137611;1203;108365;-81
2021/10/23 11:22:50;;;;;;;11.40;4.30;;;;;;;9.39;61.79;100503.11;137787;1203;107462;-80
2021/10/23 11:26:04;;;;;;;13.00;3.60;;;;;;;9.34;61.47;100499.52;137584;1202;108535;-81
2021/10/23 11:29:21;;;;;;;13.60;5.50;;;;;;;9.32;61.65;100503.41;137508;1203;108373;-79
2021/10/23 11:32:27;;;;;;;12.50;6.00;;;;;;;9.36;61.52;100502.98;137542;1207;108721;-81
2021/10/23 11:35:37;;;;;;;13.10;4.70;;;;;;;9.41;61.65;100507.94;138778;1200;108722;-79
2021/10/23 11:38:47;;;;;;;15.00;5.20;;;;;;;9.36;60.56;100516.02;138063;1202;108383;-81
2021/10/23 11:41:52;;;;;;;17.60;6.10;;;;;;;9.22;61.11;100512.13;137833;1202;108480;-82
2021/10/23 11:44:59;;;;;;;16.00;6.80;;;;;;;9.19;61.12;100512.71;137695;1200;108617;-81
2021/10/23 11:48:06;;;;;;;12.80;4.40;;;;;;;9.18;61.37;100518.70;137668;1207;108546;-81
2021/10/23 11:51:12;;;;;;;18.40;9.40;;;;;;;9.21;61.73;100516.80;137617;1206;108501;-75
2021/10/23 11:54:17;;;;;;;12.80;3.90;;;;;;;9.24;61.41;100523.46;137724;1200;108598;-80
2021/10/23 11:57:43;;;;;;;9.90;3.50;;;;;;;9.10;61.27;100517.63;137499;1203;108410;-81
2021/10/23 12:00:57;;;;;;;14.60;4.30;;;;;;;9.10;61.60;100514.95;137744;1200;108480;-84
2021/10/23 12:04:03;;;;;;;13.00;4.20;;;;;;;9.21;61.61;100517.67;137748;1200;108478;-83
2021/10/23 12:07:08;;;;;;;9.60;3.60;;;;;;;9.25;61.22;100523.03;137638;1200;108428;-81
2021/10/23 12:10:14;;;;;;;10.20;3.00;;;;;;;9.25;61.24;100529.08;137655;1204;108707;-82
2021/10/23 12:13:19;;;;;;;9.60;4.00;;;;;;;9.18;61.10;100528.98;137645;1206;108522;-81
2021/10/23 12:16:34;;;;;;;11.00;3.60;;;;;;;9.11;61.01;100532.45;137631;1202;108524;-81
2021/10/23 12:19:42;;;;;;;12.60;3.90;;;;;;;9.09;60.94;100537.64;137778;1203;108606;-79
2021/10/23 12:22:48;;;;;;;12.40;3.30;;;;;;;9.15;61.16;100539.35;137542;1208;108897;-79
2021/10/23 12:26:06;;;;;;;25.00;11.30;;;;;;;9.13;60.76;100547.00;137655;1200;108602;-78
2021/10/23 12:29:13;;;;;;;106.10;37.10;;;;;;;9.11;61.01;100545.42;137618;1206;108173;-77
2021/10/23 12:32:20;;;;;;;30.70;12.80;;;;;;;9.14;61.26;100543.86;137543;1200;108497;-79
2021/10/23 12:35:27;;;;;;;55.40;24.80;;;;;;;9.20;61.02;100552.23;137543;1202;108429;-79
2021/10/23 12:38:32;;;;;;;119.90;53.80;;;;;;;9.22;60.72;100553.95;137576;1203;108434;-80
2021/10/23 12:41:38;;;;;;;51.40;23.40;;;;;;;9.26;61.09;100556.62;137532;1208;108316;-80
2021/10/23 12:44:43;;;;;;;38.10;19.90;;;;;;;9.34;60.93;100558.27;137593;1203;108521;-78
2021/10/23 12:47:49;;;;;;;51.50;24.80;;;;;;;9.33;60.26;100561.39;137560;1203;108386;-80
2021/10/23 12:50:56;;;;;;;24.30;12.20;;;;;;;9.31;60.73;100561.36;137661;1203;108823;-82
2021/10/23 12:54:01;;;;;;;12.70;5.10;;;;;;;9.38;60.60;100561.08;137564;1203;107260;-79
2021/10/23 12:57:07;;;;;;;74.90;35.40;;;;;;;9.36;60.29;100555.25;137618;1200;108509;-80
2021/10/23 13:00:14;;;;;;;45.30;21.30;;;;;;;9.45;60.71;100553.23;137621;1203;108507;-80
2021/10/23 13:03:20;;;;;;;42.30;20.20;;;;;;;9.51;60.45;100558.33;137699;1202;108486;-82
2021/10/23 13:06:25;;;;;;;213.30;100.20;;;;;;;9.59;60.06;100562.02;137646;1203;108442;-78
2021/10/23 13:09:30;;;;;;;51.30;26.10;;;;;;;9.64;60.22;100565.46;137804;1200;107401;-77
2021/10/23 13:12:38;;;;;;;113.00;61.00;;;;;;;9.66;59.99;100569.41;137399;1203;108659;-75
2021/10/23 13:15:43;;;;;;;43.40;22.70;;;;;;;9.60;60.01;100569.61;137822;1203;108409;-84
2021/10/23 13:18:49;;;;;;;42.70;29.10;;;;;;;9.62;60.09;100571.92;138159;1202;107234;-84
2021/10/23 13:21:54;;;;;;;345.90;147.60;;;;;;;9.62;60.14;100574.35;138057;1203;106633;-80
2021/10/23 13:25:00;;;;;;;115.10;47.60;;;;;;;9.63;60.11;100578.86;137868;1202;108538;-84
2021/10/23 13:28:05;;;;;;;75.90;37.50;;;;;;;9.60;59.73;100577.40;138294;1200;110054;-81
2021/10/23 13:31:13;;;;;;;31.00;14.90;;;;;;;9.54;59.92;100580.59;137795;1200;108511;-82
2021/10/23 13:34:18;;;;;;;13.80;7.80;;;;;;;9.51;59.87;100583.90;137864;1200;108454;-79
2021/10/23 13:37:24;;;;;;;22.30;10.30;;;;;;;9.51;59.79;100586.04;137991;1203;108439;-80
2021/10/23 13:40:29;;;;;;;8.10;3.70;;;;;;;9.48;59.65;100589.34;138064;1203;108566;-79
2021/10/23 13:43:35;;;;;;;24.10;12.40;;;;;;;9.31;60.03;100593.17;137502;1200;108646;-81
2021/10/23 13:46:43;;;;;;;29.00;13.20;;;;;;;9.27;60.28;100594.04;137623;1200;108652;-80
2021/10/23 13:49:49;;;;;;;95.90;47.80;;;;;;;9.19;60.20;100595.59;137714;1193;108552;-77
2021/10/23 13:52:54;;;;;;;47.30;25.90;;;;;;;9.20;60.23;100598.70;137612;1200;108652;-78
2021/10/23 13:56:00;;;;;;;34.50;17.70;;;;;;;9.23;60.25;100596.54;137559;1200;108490;-86
2021/10/23 13:59:05;;;;;;;77.10;42.80;;;;;;;9.18;60.03;100603.90;137694;1200;108411;-83
2021/10/23 14:02:12;;;;;;;79.50;44.90;;;;;;;9.14;60.33;100596.80;137673;1200;107409;-81
2021/10/23 14:05:17;;;;;;;59.80;34.30;;;;;;;9.14;60.32;100592.50;137881;1200;108414;-85
2021/10/23 14:08:22;;;;;;;75.90;47.20;;;;;;;9.13;60.60;100593.31;138040;1200;109452;-84
2021/10/23 14:11:28;;;;;;;26.00;12.30;;;;;;;9.09;60.58;100605.91;137776;1199;107495;-85
2021/10/23 14:14:33;;;;;;;28.10;16.30;;;;;;;9.02;60.53;100607.19;137639;1200;108418;-83
2021/10/23 14:17:39;;;;;;;105.20;59.20;;;;;;;9.01;60.62;100608.36;137698;1193;107422;-81
2021/10/23 14:20:44;;;;;;;17.90;8.60;;;;;;;9.04;60.64;100612.19;137733;1200;108796;-84
2021/10/23 14:23:49;;;;;;;85.70;54.10;;;;;;;9.07;60.59;100623.98;137850;1200;108623;-85
2021/10/23 14:26:57;;;;;;;63.80;40.10;;;;;;;9.09;60.73;100630.74;138032;1200;108652;-84
2021/10/23 14:30:03;;;;;;;56.80;36.30;;;;;;;9.11;60.76;100630.09;137985;1200;107398;-82
2021/10/23 14:33:08;;;;;;;45.50;24.00;;;;;;;9.09;61.14;100635.23;137906;1200;108387;-80
2021/10/23 14:36:14;;;;;;;32.20;17.30;;;;;;;9.05;60.82;100643.34;137804;1202;108421;-79
2021/10/23 14:39:19;;;;;;;17.00;8.60;;;;;;;9.01;60.92;100642.45;137897;1201;108572;-79
2021/10/23 14:42:26;;;;;;;13.80;6.70;;;;;;;8.96;61.02;100658.52;137590;1203;108713;-79
2021/10/23 14:45:32;;;;;;;83.20;44.60;;;;;;;8.96;60.85;100665.60;137844;1200;107954;-85
2021/10/23 14:48:38;;;;;;;148.60;77.20;;;;;;;9.01;60.80;100665.48;137944;1203;108915;-77
2021/10/23 14:51:43;;;;;;;201.70;75.20;;;;;;;9.11;60.69;100673.04;137806;1208;108368;-79
2021/10/23 14:54:49;;;;;;;53.40;25.30;;;;;;;9.18;60.29;100674.52;137893;1202;108675;-83
2021/10/23 14:57:54;;;;;;;17.50;6.50;;;;;;;9.17;60.13;100679.77;138173;1203;108490;-76
2021/10/23 15:01:01;;;;;;;27.10;10.20;;;;;;;9.09;60.34;100681.89;138053;1203;108381;-79
2021/10/23 15:04:06;;;;;;;59.50;20.70;;;;;;;9.06;60.54;100681.09;137968;1203;108395;-80
2021/10/23 15:07:12;;;;;;;47.90;17.10;;;;;;;9.04;60.65;100685.30;137944;1203;108482;-83
2021/10/23 15:10:17;;;;;;;81.10;38.20;;;;;;;9.00;60.63;100690.25;138140;1203;108411;-83
2021/10/23 15:13:23;;;;;;;35.00;13.10;;;;;;;8.94;60.59;100697.20;137678;1201;108530;-87
2021/10/23 15:16:28;;;;;;;101.80;61.90;;;;;;;8.91;60.74;100700.79;138089;1202;107566;-81
2021/10/23 15:19:33;;;;;;;83.80;54.10;;;;;;;8.90;60.83;100710.09;137728;1203;108497;-81
2021/10/23 15:22:39;;;;;;;72.60;29.50;;;;;;;8.87;60.92;100720.32;137699;1203;108491;-78
2021/10/23 15:25:45;;;;;;;40.90;15.90;;;;;;;8.80;61.82;100744.16;137895;1202;108646;-82
2021/10/23 15:28:51;;;;;;;13.70;6.20;;;;;;;8.68;63.54;100764.68;137613;1203;108687;-84
2021/10/23 15:31:57;;;;;;;9.70;2.70;;;;;;;8.16;71.56;100827.89;137887;1202;107327;-81
2021/10/23 15:35:03;;;;;;;7.80;4.10;;;;;;;7.27;73.10;100817.14;137649;1203;106635;-81
2021/10/23 15:38:11;;;;;;;13.40;6.80;;;;;;;6.89;72.22;100818.43;137934;1202;108505;-83
2021/10/23 15:41:27;;;;;;;11.80;5.40;;;;;;;6.69;72.60;100820.27;137820;1202;108512;-81
2021/10/23 15:44:33;;;;;;;12.00;6.30;;;;;;;6.56;72.85;100824.77;137821;1203;108526;-80
2021/10/23 15:47:38;;;;;;;23.90;8.10;;;;;;;6.50;73.09;100813.71;137703;1203;109486;-80
2021/10/23 15:50:43;;;;;;;14.00;4.90;;;;;;;6.51;72.06;100797.23;137537;1202;108636;-78
2021/10/23 15:53:49;;;;;;;18.00;5.20;;;;;;;6.52;71.07;100802.84;137624;1204;106272;-80
2021/10/23 15:56:54;;;;;;;19.50;6.60;;;;;;;6.48;71.15;100810.52;137675;1202;108586;-81
2021/10/23 16:00:00;;;;;;;16.20;7.50;;;;;;;6.45;71.03;100821.00;137520;1202;108583;-77